Time;durP1;ratioP1;P1;durP2;ratioP2;P2;SDS_P1;SDS_P2;PMS_P1;PMS_P2;Temp;Humidity;BMP_temperature;BMP_pressure;BME280_temperature;BME280_humidity;BME280_pressure;Samples;Min_cycle;Max_cycle;Signal;HPM_P1;HPM_P2
2023/09/12 04:00:16;;;;;;;0.60;0.20;;;21.60;99.90;;;;;;5888296;23;22172;-73
2023/09/12 04:02:44;;;;;;;0.60;0.13;;;21.50;99.90;;;;;;4916904;29;20462;-74
2023/09/12 04:05:12;;;;;;;0.60;0.10;;;21.50;99.90;;;;;;4917447;29;20466;-75
2023/09/12 04:07:39;;;;;;;0.80;0.77;;;21.50;99.90;;;;;;4917427;29;21029;-73
2023/09/12 04:10:09;;;;;;;0.87;0.87;;;21.50;99.90;;;;;;4917090;29;20444;-74
2023/09/12 04:12:37;;;;;;;1.00;0.63;;;21.50;99.90;;;;;;4890423;29;20530;-74
2023/09/12 04:17:46;;;;;;;0.60;0.10;;;21.70;99.90;;;;;;4896805;29;20469;-73
2023/09/12 04:20:14;;;;;;;6.83;1.80;;;21.60;99.90;;;;;;4896728;29;20500;-75
2023/09/12 04:22:43;;;;;;;0.60;0.10;;;21.60;99.90;;;;;;4898728;29;21027;-75
2023/09/12 04:25:11;;;;;;;0.87;0.17;;;21.50;99.90;;;;;;4897486;29;20457;-74
2023/09/12 04:27:39;;;;;;;0.60;0.10;;;21.50;99.90;;;;;;4898859;29;20884;-73
2023/09/12 04:30:08;;;;;;;0.60;0.10;;;21.50;99.90;;;;;;4898705;29;20455;-73
2023/09/12 04:32:36;;;;;;;0.60;0.10;;;21.40;99.90;;;;;;4898305;29;20450;-73
2023/09/12 04:35:06;;;;;;;0.60;0.20;;;21.50;99.90;;;;;;4897935;29;20460;-75
2023/09/12 04:37:34;;;;;;;0.60;0.10;;;;;;;;;;4897742;29;20449;-74
2023/09/12 04:40:05;;;;;;;0.60;0.20;;;21.60;99.90;;;;;;4897634;29;20963;-76
2023/09/12 04:42:33;;;;;;;0.60;0.10;;;21.60;99.90;;;;;;4897755;29;20497;-74
2023/09/12 04:45:02;;;;;;;0.60;0.10;;;;;;;;;;4897490;29;20830;-74
2023/09/12 04:47:30;;;;;;;0.60;0.10;;;;;;;;;;4898064;29;20497;-74
2023/09/12 04:49:57;;;;;;;0.60;0.20;;;21.80;99.90;;;;;;4898060;29;20932;-74
2023/09/12 04:52:27;;;;;;;0.60;0.27;;;21.80;99.90;;;;;;4898080;29;20531;-73
2023/09/12 04:54:54;;;;;;;0.60;0.10;;;21.90;99.90;;;;;;4897612;29;20548;-73
2023/09/12 04:57:22;;;;;;;0.60;0.10;;;21.90;99.90;;;;;;4898328;29;20558;-73
2023/09/12 04:59:52;;;;;;;0.80;0.70;;;21.90;99.90;;;;;;4897986;29;20595;-73
2023/09/12 05:02:20;;;;;;;0.60;0.10;;;21.90;99.90;;;;;;4897854;29;20485;-73
2023/09/12 05:04:48;;;;;;;0.70;0.30;;;21.90;99.90;;;;;;4897632;29;20543;-73
2023/09/12 05:07:16;;;;;;;0.67;0.37;;;21.80;99.90;;;;;;4898130;29;20580;-72
2023/09/12 05:09:45;;;;;;;0.60;0.10;;;21.80;99.90;;;;;;4899098;29;20978;-73
2023/09/12 05:12:13;;;;;;;0.60;0.20;;;;;;;;;;4898443;29;20870;-74
2023/09/12 05:14:41;;;;;;;0.60;0.20;;;21.70;99.90;;;;;;4899108;29;20452;-72
2023/09/12 05:17:10;;;;;;;0.70;0.30;;;;;;;;;;4898604;29;20561;-74
2023/09/12 05:19:38;;;;;;;0.60;0.10;;;21.60;99.90;;;;;;4897733;29;20484;-73
2023/09/12 05:22:06;;;;;;;0.60;0.10;;;;;;;;;;4898138;29;20533;-73
2023/09/12 05:24:34;;;;;;;0.60;0.10;;;21.40;99.90;;;;;;4897716;29;20533;-74
2023/09/12 05:27:05;;;;;;;0.60;0.10;;;21.30;99.90;;;;;;4897788;29;20465;-74
2023/09/12 05:29:33;;;;;;;0.60;0.10;;;21.30;99.90;;;;;;4890534;29;20453;-74
2023/09/12 05:32:01;;;;;;;0.60;0.20;;;21.20;99.90;;;;;;4897336;29;20540;-74
2023/09/12 05:34:29;;;;;;;0.60;0.20;;;;;;;;;;4897036;29;20488;-73
2023/09/12 05:36:57;;;;;;;0.60;0.10;;;21.20;99.90;;;;;;4897199;29;20465;-71
2023/09/12 05:39:25;;;;;;;0.60;0.20;;;;;;;;;;4897520;29;20819;-72
2023/09/12 05:41:54;;;;;;;0.60;0.20;;;;;;;;;;4897526;29;20481;-72
2023/09/12 05:44:23;;;;;;;0.60;0.10;;;;;;;;;;4897602;29;20449;-72
2023/09/12 05:46:50;;;;;;;0.60;0.10;;;21.00;99.90;;;;;;4897675;29;20860;-72
2023/09/12 05:49:19;;;;;;;0.60;0.10;;;;;;;;;;4897265;29;20457;-71
2023/09/12 05:51:47;;;;;;;0.60;0.17;;;;;;;;;;4897056;29;20833;-71
2023/09/12 05:54:15;;;;;;;0.60;0.10;;;21.10;99.90;;;;;;4896327;29;20461;-71
2023/09/12 05:56:43;;;;;;;0.60;0.10;;;21.20;99.90;;;;;;4897148;29;20469;-73
2023/09/12 05:59:11;;;;;;;0.67;0.33;;;21.30;99.90;;;;;;4897731;29;20517;-74
2023/09/12 06:01:40;;;;;;;2.27;2.10;;;;;;;;;;4897469;29;20903;-74
2023/09/12 06:04:09;;;;;;;0.70;0.20;;;21.30;99.90;;;;;;4896995;29;20532;-74
2023/09/12 06:06:38;;;;;;;0.60;0.20;;;21.30;99.90;;;;;;4897226;29;20469;-73
2023/09/12 06:09:08;;;;;;;8.63;0.97;;;21.30;99.90;;;;;;4897480;29;20991;-73
2023/09/12 06:11:37;;;;;;;0.60;0.10;;;;;;;;;;4897404;29;20889;-74
2023/09/12 06:14:05;;;;;;;0.60;0.20;;;;;;;;;;4897003;29;20517;-73
2023/09/12 06:16:33;;;;;;;0.60;0.20;;;21.20;99.90;;;;;;4897816;29;20487;-73
2023/09/12 06:19:02;;;;;;;0.60;0.10;;;21.20;99.90;;;;;;4896981;29;20456;-73
2023/09/12 06:21:30;;;;;;;0.60;0.10;;;;;;;;;;4896930;29;20836;-73
2023/09/12 06:24:11;;;;;;;0.60;0.10;;;21.30;99.90;;;;;;4896878;29;20457;-74
2023/09/12 06:26:40;;;;;;;0.60;0.10;;;21.40;99.90;;;;;;4896852;29;20469;-73
2023/09/12 06:29:08;;;;;;;0.90;0.67;;;21.40;99.90;;;;;;4896777;29;20454;-72
2023/09/12 06:31:36;;;;;;;0.60;0.10;;;21.40;99.90;;;;;;4893387;29;20458;-74
2023/09/12 06:34:05;;;;;;;0.60;0.20;;;21.40;99.90;;;;;;4881741;29;20457;-73
2023/09/12 06:36:34;;;;;;;0.60;0.20;;;;;;;;;;4897564;29;20560;-74
2023/09/12 06:39:03;;;;;;;0.60;0.10;;;21.40;99.90;;;;;;4897578;29;20508;-74
2023/09/12 06:41:30;;;;;;;0.60;0.10;;;21.40;99.90;;;;;;4896900;29;21070;-73
2023/09/12 06:43:58;;;;;;;0.60;0.10;;;21.40;99.90;;;;;;4896456;29;20485;-74
2023/09/12 06:46:27;;;;;;;0.60;0.10;;;21.40;99.90;;;;;;4896161;29;21068;-74
2023/09/12 06:48:56;;;;;;;0.60;0.20;;;21.40;99.90;;;;;;4896519;29;20449;-74
2023/09/12 06:51:26;;;;;;;0.60;0.20;;;21.40;99.90;;;;;;4896809;29;20493;-74
2023/09/12 06:54:00;;;;;;;0.60;0.10;;;21.40;99.90;;;;;;4899774;29;20448;-73
2023/09/12 06:56:28;;;;;;;0.63;0.30;;;21.50;99.90;;;;;;4904260;29;20536;-74
2023/09/12 06:58:57;;;;;;;0.60;0.20;;;;;;;;;;4903505;29;20454;-74
2023/09/12 07:01:25;;;;;;;10.90;5.63;;;;;;;;;;4905174;29;20552;-74
2023/09/12 07:03:56;;;;;;;0.80;0.50;;;21.50;99.90;;;;;;4899540;29;20457;-74
2023/09/12 07:06:24;;;;;;;0.70;0.20;;;;;;;;;;4895806;29;20533;-74
2023/09/12 07:08:54;;;;;;;0.60;0.20;;;;;;;;;;4897081;29;20941;-74
2023/09/12 07:11:24;;;;;;;0.60;0.20;;;;;;;;;;4900229;29;20544;-73
2023/09/12 07:13:52;;;;;;;0.60;0.20;;;;;;;;;;4902017;29;20501;-73
2023/09/12 07:16:21;;;;;;;0.60;0.10;;;;;;;;;;4899237;29;21035;-73
2023/09/12 07:18:49;;;;;;;0.60;0.20;;;21.60;99.90;;;;;;4898429;29;20833;-73
2023/09/12 07:21:17;;;;;;;0.60;0.20;;;;;;;;;;4900758;29;20488;-73
2023/09/12 07:23:45;;;;;;;0.60;0.20;;;21.50;99.90;;;;;;4900281;29;20449;-74
2023/09/12 07:26:15;;;;;;;1.40;0.70;;;21.60;99.90;;;;;;4899474;29;20484;-74
2023/09/12 07:28:44;;;;;;;1.40;1.30;;;;;;;;;;4900264;29;20483;-72
2023/09/12 07:31:12;;;;;;;0.83;0.43;;;21.60;99.90;;;;;;4895580;29;20469;-75
2023/09/12 07:33:40;;;;;;;0.60;0.10;;;21.60;99.90;;;;;;4892842;29;20456;-73
2023/09/12 07:36:09;;;;;;;0.60;0.20;;;21.70;99.90;;;;;;4898674;29;20484;-73
2023/09/12 07:38:38;;;;;;;0.60;0.10;;;21.80;99.90;;;;;;4899388;29;20456;-73
2023/09/12 07:41:05;;;;;;;0.70;0.40;;;22.00;99.90;;;;;;4898002;29;20484;-73
2023/09/12 07:43:35;;;;;;;0.60;0.10;;;22.00;99.90;;;;;;4899297;29;20453;-74
2023/09/12 07:46:03;;;;;;;0.60;0.23;;;22.10;99.90;;;;;;4899238;29;20534;-74
2023/09/12 07:48:32;;;;;;;0.60;0.10;;;;;;;;;;4899321;29;20820;-74
2023/09/12 07:50:59;;;;;;;0.60;0.10;;;22.30;99.90;;;;;;4899482;29;20472;-74
2023/09/12 07:53:27;;;;;;;0.60;0.20;;;22.30;99.90;;;;;;4899428;29;20517;-74
2023/09/12 07:55:55;;;;;;;0.60;0.20;;;;;;;;;;4899149;29;20566;-74
2023/09/12 07:58:23;;;;;;;0.60;0.10;;;22.40;99.90;;;;;;4899272;29;20445;-74
2023/09/12 08:00:52;;;;;;;2.77;2.57;;;22.40;99.90;;;;;;4899226;29;20575;-74
2023/09/12 08:03:21;;;;;;;0.60;0.10;;;;;;;;;;4896834;29;20476;-73
2023/09/12 08:05:55;;;;;;;0.60;0.20;;;22.60;99.90;;;;;;4898642;29;21023;-73
2023/09/12 08:08:24;;;;;;;0.60;0.10;;;;;;;;;;4899104;29;20539;-73
2023/09/12 08:10:52;;;;;;;0.60;0.10;;;22.70;99.90;;;;;;4898805;29;20559;-73
2023/09/12 08:13:20;;;;;;;0.60;0.10;;;;;;;;;;4896468;29;20532;-73
2023/09/12 08:15:47;;;;;;;0.60;0.10;;;22.60;99.90;;;;;;4897975;29;20480;-73
2023/09/12 08:18:17;;;;;;;0.60;0.20;;;22.70;99.90;;;;;;4900180;29;20599;-73
2023/09/12 08:20:45;;;;;;;0.60;0.10;;;22.80;99.90;;;;;;4898871;29;20465;-74
2023/09/12 08:23:13;;;;;;;1.27;1.17;;;;;;;;;;4898002;29;20486;-71
2023/09/12 08:25:41;;;;;;;0.60;0.20;;;22.90;99.90;;;;;;4898719;29;20475;-71
2023/09/12 08:28:09;;;;;;;9.90;3.57;;;;;;;;;;4898493;29;20846;-72
2023/09/12 08:30:37;;;;;;;0.60;0.10;;;22.90;99.90;;;;;;4890185;29;20489;-72
2023/09/12 08:33:06;;;;;;;0.90;0.47;;;22.90;99.90;;;;;;4898011;29;20442;-71
2023/09/12 08:35:35;;;;;;;0.63;0.30;;;23.00;99.90;;;;;;4897202;29;21015;-72
2023/09/12 08:38:04;;;;;;;0.60;0.20;;;;;;;;;;4898074;29;20449;-71
2023/09/12 08:40:35;;;;;;;0.60;0.10;;;23.10;99.90;;;;;;4897919;29;20549;-71
2023/09/12 08:43:04;;;;;;;0.60;0.20;;;23.10;99.90;;;;;;4897822;29;20489;-71
2023/09/12 08:45:32;;;;;;;0.60;0.10;;;;;;;;;;4897818;29;20588;-71
2023/09/12 08:48:02;;;;;;;0.60;0.20;;;23.30;99.90;;;;;;4898424;29;20548;-71
2023/09/12 08:50:33;;;;;;;2.10;1.77;;;23.30;99.90;;;;;;4897833;29;20896;-71
2023/09/12 08:53:03;;;;;;;0.60;0.20;;;23.30;99.90;;;;;;4897844;29;20505;-71
2023/09/12 08:55:36;;;;;;;0.60;0.10;;;23.40;99.90;;;;;;4897457;29;20830;-71
2023/09/12 08:58:06;;;;;;;0.60;0.20;;;23.60;99.90;;;;;;4897683;29;20853;-71
2023/09/12 09:00:35;;;;;;;0.60;0.10;;;23.50;99.90;;;;;;4897074;29;20449;-71
2023/09/12 09:03:05;;;;;;;0.60;0.13;;;23.60;99.90;;;;;;4895492;29;20516;-70
2023/09/12 09:05:34;;;;;;;0.60;0.20;;;23.60;99.90;;;;;;4896939;29;20473;-71
2023/09/12 09:08:05;;;;;;;0.60;0.10;;;23.70;99.90;;;;;;4893775;29;20453;-71
2023/09/12 09:10:33;;;;;;;0.70;0.20;;;23.80;99.90;;;;;;4897670;29;20557;-71
2023/09/12 09:13:06;;;;;;;0.70;0.10;;;23.90;99.90;;;;;;4897613;29;20540;-71
2023/09/12 09:15:36;;;;;;;0.70;0.10;;;;;;;;;;4897397;29;20484;-71
2023/09/12 09:18:05;;;;;;;0.70;0.10;;;24.10;99.90;;;;;;4897406;29;20517;-72
2023/09/12 09:20:36;;;;;;;0.70;0.10;;;24.20;99.90;;;;;;4897338;29;20456;-72
2023/09/12 09:23:08;;;;;;;0.70;0.20;;;24.30;99.90;;;;;;4897390;29;20491;-71
2023/09/12 09:25:40;;;;;;;0.70;0.10;;;24.30;99.90;;;;;;4896616;29;20498;-71
2023/09/12 09:28:18;;;;;;;0.70;0.10;;;24.30;99.90;;;;;;4897005;29;20485;-72
2023/09/12 09:30:47;;;;;;;0.70;0.10;;;24.40;99.90;;;;;;4890023;29;20497;-71
2023/09/12 09:33:16;;;;;;;0.70;0.10;;;24.40;99.70;;;;;;4896825;29;20445;-71
2023/09/12 09:35:47;;;;;;;0.70;0.20;;;24.50;99.90;;;;;;4897029;29;20466;-71
2023/09/12 09:38:20;;;;;;;0.70;0.10;;;24.50;99.60;;;;;;4896620;29;20542;-72
2023/09/12 09:40:50;;;;;;;0.70;0.20;;;24.50;99.60;;;;;;4890481;29;20496;-71
2023/09/12 09:43:21;;;;;;;0.70;0.10;;;24.60;99.90;;;;;;4894052;29;20525;-71
2023/09/12 09:45:49;;;;;;;0.70;0.30;;;;;;;;;;4896713;29;20470;-71
2023/09/12 09:48:21;;;;;;;0.70;0.20;;;24.70;99.70;;;;;;4897347;29;20477;-73
2023/09/12 09:50:50;;;;;;;0.70;0.17;;;25.00;99.90;;;;;;4895493;29;20469;-71
2023/09/12 09:53:22;;;;;;;0.70;0.20;;;24.80;97.90;;;;;;4896740;29;20467;-72
2023/09/12 09:55:50;;;;;;;0.67;0.10;;;24.90;99.00;;;;;;4896324;29;20475;-71
2023/09/12 09:58:19;;;;;;;0.70;0.10;;;;;;;;;;4896680;29;20454;-73
2023/09/12 10:00:48;;;;;;;0.70;0.20;;;25.10;98.60;;;;;;4896635;29;21023;-71
2023/09/12 10:03:19;;;;;;;0.70;0.20;;;25.20;98.60;;;;;;4896449;29;20485;-74
2023/09/12 10:06:03;;;;;;;0.70;0.20;;;25.20;98.80;;;;;;5095169;27;20603;-72
2023/09/12 10:08:33;;;;;;;0.70;0.10;;;25.20;97.40;;;;;;5088151;28;20443;-72
2023/09/12 10:11:01;;;;;;;0.70;0.10;;;25.30;96.50;;;;;;5088731;28;20442;-72
2023/09/12 10:13:32;;;;;;;0.70;0.10;;;25.40;96.00;;;;;;5087903;28;20472;-72
2023/09/12 10:16:04;;;;;;;0.70;0.10;;;25.50;94.60;;;;;;5084442;28;20551;-71
2023/09/12 10:18:39;;;;;;;0.70;0.20;;;25.50;92.20;;;;;;5078246;28;20562;-72
2023/09/12 10:21:16;;;;;;;0.70;0.10;;;25.60;91.60;;;;;;5087637;28;20954;-71
2023/09/12 10:23:46;;;;;;;0.70;0.10;;;25.70;91.30;;;;;;5088472;28;20768;-71
2023/09/12 10:26:15;;;;;;;0.97;0.80;;;25.80;90.40;;;;;;5084810;28;20467;-71
2023/09/12 10:28:43;;;;;;;1.47;0.87;;;25.80;91.20;;;;;;5071489;28;20880;-72
2023/09/12 10:31:13;;;;;;;0.70;0.10;;;25.80;80.10;;;;;;5086678;28;20937;-71
2023/09/12 10:33:41;;;;;;;0.70;0.10;;;24.20;77.30;;;;;;5078592;28;20541;-71
2023/09/12 10:36:12;;;;;;;0.70;0.10;;;25.90;82.10;;;;;;5087447;28;20521;-71
2023/09/12 10:38:44;;;;;;;0.70;0.20;;;26.00;79.20;;;;;;5087568;28;20945;-72
2023/09/12 10:41:14;;;;;;;0.80;0.40;;;26.20;78.80;;;;;;5087868;28;20446;-71
2023/09/12 10:43:46;;;;;;;0.70;0.20;;;26.20;76.80;;;;;;5078917;28;20444;-71
2023/09/12 10:46:14;;;;;;;1.03;0.93;;;;;;;;;;5086659;28;20499;-71
2023/09/12 10:48:42;;;;;;;0.80;0.20;;;26.40;76.40;;;;;;5083740;28;20479;-71
2023/09/12 10:51:14;;;;;;;0.70;0.13;;;26.60;77.50;;;;;;5081580;28;20447;-70
2023/09/12 10:53:48;;;;;;;0.70;0.10;;;26.60;76.60;;;;;;5086994;28;20521;-72
2023/09/12 10:56:19;;;;;;;0.70;0.10;;;26.70;75.50;;;;;;5087957;28;20502;-72
2023/09/12 10:59:10;;;;;;;3.63;3.33;;;26.80;74.90;;;;;;5087311;28;20433;-70
2023/09/12 11:01:40;;;;;;;0.70;0.20;;;26.70;75.10;;;;;;5085007;28;20479;-71
2023/09/12 11:04:34;;;;;;;0.70;0.10;;;26.70;74.70;;;;;;5085356;28;20448;-70
2023/09/12 11:07:34;;;;;;;0.70;0.20;;;26.70;76.10;;;;;;5070528;28;20548;-71
2023/09/12 11:10:22;;;;;;;0.70;0.10;;;26.70;77.10;;;;;;5079618;28;21149;-70
2023/09/12 11:12:51;;;;;;;3.43;3.23;;;26.80;77.20;;;;;;5077119;28;20454;-70
2023/09/12 11:15:21;;;;;;;1.13;0.23;;;26.80;72.90;;;;;;5063462;28;20508;-71
2023/09/12 11:17:50;;;;;;;0.70;0.20;;;26.80;70.50;;;;;;5054067;28;20850;-70
2023/09/12 11:20:18;;;;;;;0.70;0.30;;;26.90;68.10;;;;;;5049823;28;20487;-71
2023/09/12 11:22:49;;;;;;;0.70;0.10;;;27.00;68.50;;;;;;5061911;28;20950;-72
2023/09/12 11:25:22;;;;;;;0.70;0.20;;;27.00;65.40;;;;;;5051118;28;20457;-71
2023/09/12 11:28:06;;;;;;;0.70;0.20;;;27.10;63.80;;;;;;5052674;28;20456;-71
2023/09/12 11:30:34;;;;;;;2.13;1.97;;;;;;;;;;5061862;28;20923;-70
2023/09/12 11:33:05;;;;;;;0.70;0.20;;;26.90;61.70;;;;;;5060392;28;20448;-70
2023/09/12 11:35:40;;;;;;;0.70;0.17;;;27.00;61.60;;;;;;5053850;28;20484;-69
2023/09/12 11:38:12;;;;;;;0.70;0.10;;;27.10;63.00;;;;;;5072850;28;20458;-72
2023/09/12 11:40:45;;;;;;;0.70;0.20;;;27.30;63.00;;;;;;5073027;28;20441;-71
2023/09/12 11:43:22;;;;;;;0.70;0.20;;;27.40;62.10;;;;;;5073397;28;20445;-71
2023/09/12 11:45:51;;;;;;;0.80;0.33;;;;;;;;;;5072736;28;20467;-72
2023/09/12 11:48:19;;;;;;;0.70;0.20;;;;;;;;;;5055454;28;20460;-71
2023/09/12 11:50:52;;;;;;;0.70;0.10;;;27.50;58.10;;;;;;5058267;28;20451;-72
2023/09/12 11:53:25;;;;;;;1.77;0.73;;;27.50;59.40;;;;;;5071133;28;20548;-71
2023/09/12 11:55:55;;;;;;;0.70;0.10;;;27.70;59.50;;;;;;5064439;28;20488;-72
2023/09/12 11:58:23;;;;;;;0.70;0.20;;;;;;;;;;5072055;28;20449;-71
2023/09/12 12:00:53;;;;;;;0.80;0.60;;;27.80;58.40;;;;;;5064656;28;20476;-72
2023/09/12 12:03:22;;;;;;;0.70;0.10;;;27.80;59.20;;;;;;5063735;28;20938;-71
2023/09/12 12:05:51;;;;;;;0.70;0.20;;;;;;;;;;5071755;28;20466;-72
2023/09/12 12:08:19;;;;;;;0.70;0.10;;;28.00;60.20;;;;;;5065198;28;20955;-72
2023/09/12 12:10:55;;;;;;;0.80;0.50;;;28.00;56.90;;;;;;5053908;28;21014;-70
2023/09/12 12:13:23;;;;;;;0.70;0.20;;;28.10;52.50;;;;;;5068981;28;20449;-70
2023/09/12 12:15:51;;;;;;;1.10;0.50;;;28.10;52.70;;;;;;5056419;28;21051;-71
2023/09/12 12:18:20;;;;;;;3.73;1.90;;;28.10;47.90;;;;;;5072530;28;20453;-70
2023/09/12 12:20:48;;;;;;;0.70;0.20;;;28.20;48.50;;;;;;5061563;28;20452;-71
2023/09/12 12:23:16;;;;;;;0.70;0.10;;;28.20;49.50;;;;;;5047790;28;20446;-70
2023/09/12 12:25:43;;;;;;;0.70;0.20;;;28.30;49.90;;;;;;5051430;28;20549;-71
2023/09/12 12:28:13;;;;;;;0.80;0.53;;;28.40;49.10;;;;;;5047109;28;20924;-71
2023/09/12 12:30:42;;;;;;;0.70;0.20;;;28.40;49.60;;;;;;5052723;28;20815;-71
2023/09/12 12:33:10;;;;;;;0.70;0.17;;;28.50;49.60;;;;;;5051533;28;20446;-71
2023/09/12 12:36:02;;;;;;;0.70;0.20;;;28.50;46.20;;;;;;5050716;28;20474;-71
2023/09/12 12:38:34;;;;;;;0.70;0.10;;;28.60;47.90;;;;;;5051172;28;20442;-71
2023/09/12 12:41:04;;;;;;;0.70;0.20;;;28.60;47.50;;;;;;5050736;28;20442;-71
2023/09/12 12:43:33;;;;;;;0.70;0.20;;;28.60;46.10;;;;;;5048933;28;20473;-72
2023/09/12 12:46:02;;;;;;;0.80;0.50;;;28.50;44.30;;;;;;5051651;28;20458;-71
2023/09/12 12:48:31;;;;;;;0.70;0.20;;;28.50;44.40;;;;;;5052731;28;20486;-70
2023/09/12 12:50:59;;;;;;;0.70;0.20;;;28.50;44.10;;;;;;5061178;28;20434;-71
2023/09/12 12:53:40;;;;;;;0.90;0.60;;;28.60;44.90;;;;;;5048282;28;20469;-71
2023/09/12 12:56:20;;;;;;;1.57;1.47;;;28.60;43.50;;;;;;5048443;28;20481;-70
2023/09/12 12:58:51;;;;;;;0.70;0.20;;;28.70;45.30;;;;;;5050404;28;20928;-70
2023/09/12 13:01:20;;;;;;;5.10;2.57;;;28.80;44.80;;;;;;5045001;28;20447;-70
2023/09/12 13:03:49;;;;;;;0.70;0.20;;;28.90;45.40;;;;;;5047817;28;20449;-71
2023/09/12 13:06:18;;;;;;;0.70;0.20;;;29.00;44.10;;;;;;5070920;28;20465;-71
2023/09/12 13:08:48;;;;;;;0.70;0.10;;;28.90;46.60;;;;;;5070440;28;20453;-71
2023/09/12 13:11:17;;;;;;;0.70;0.20;;;29.00;48.00;;;;;;5061837;28;20438;-72
2023/09/12 13:13:48;;;;;;;0.70;0.20;;;29.10;47.90;;;;;;5063577;28;20446;-70
2023/09/12 13:16:17;;;;;;;2.20;0.73;;;29.10;44.00;;;;;;5052720;28;20477;-71
2023/09/12 13:18:45;;;;;;;0.80;0.50;;;29.00;45.60;;;;;;5053504;28;20446;-71
2023/09/12 13:21:13;;;;;;;0.80;0.30;;;29.00;45.70;;;;;;5052737;28;20478;-70
2023/09/12 13:23:41;;;;;;;0.80;0.20;;;29.10;46.10;;;;;;5069152;28;20441;-70
2023/09/12 13:26:10;;;;;;;0.70;0.10;;;29.10;44.80;;;;;;5061870;28;20472;-72
2023/09/12 13:28:38;;;;;;;0.70;0.10;;;29.20;45.50;;;;;;5046667;28;20446;-71
2023/09/12 13:31:06;;;;;;;0.70;0.10;;;29.20;44.30;;;;;;5046519;28;20533;-70
2023/09/12 13:33:35;;;;;;;0.70;0.10;;;29.30;45.10;;;;;;5051069;28;20537;-71
2023/09/12 13:36:03;;;;;;;0.70;0.20;;;29.30;46.00;;;;;;5050243;28;20477;-71
2023/09/12 13:38:31;;;;;;;0.70;0.17;;;29.40;46.60;;;;;;5051095;28;20446;-71
2023/09/12 13:40:59;;;;;;;0.70;0.20;;;29.40;45.80;;;;;;5050996;28;20940;-71
2023/09/12 13:43:28;;;;;;;0.70;0.20;;;29.40;45.80;;;;;;5050482;28;20952;-70
2023/09/12 13:45:56;;;;;;;1.43;1.20;;;;;;;;;;5050568;28;20488;-71
2023/09/12 13:48:26;;;;;;;1.00;0.57;;;29.30;41.30;;;;;;5050947;28;20445;-70
2023/09/12 13:50:56;;;;;;;0.70;0.17;;;29.30;42.60;;;;;;5049786;28;20442;-70
2023/09/12 13:53:24;;;;;;;0.70;0.10;;;29.40;42.00;;;;;;5047322;28;20503;-70
2023/09/12 13:55:52;;;;;;;0.70;0.20;;;;;;;;;;5050135;28;20568;-71
2023/09/12 13:58:40;;;;;;;0.70;0.10;;;29.50;44.00;;;;;;5051050;28;20470;-71
2023/09/12 14:01:13;;;;;;;0.70;0.20;;;29.50;43.90;;;;;;5049495;28;20476;-69
2023/09/12 14:03:57;;;;;;;1.60;1.37;;;29.50;43.60;;;;;;5042619;28;20453;-70
2023/09/12 14:06:27;;;;;;;0.70;0.10;;;29.60;42.40;;;;;;5049235;28;20470;-71
2023/09/12 14:08:56;;;;;;;0.70;0.10;;;29.60;41.50;;;;;;5054049;28;20446;-73
2023/09/12 14:11:24;;;;;;;0.70;0.30;;;29.70;42.00;;;;;;5069421;28;20440;-71
2023/09/12 14:14:03;;;;;;;0.70;0.20;;;29.60;35.90;;;;;;5050019;28;20594;-71
2023/09/12 14:16:44;;;;;;;0.70;0.10;;;;;;;;;;5063587;28;20992;-72
2023/09/12 14:19:16;;;;;;;1.53;0.70;;;29.70;36.70;;;;;;5051681;28;20996;-71
2023/09/12 14:21:46;;;;;;;0.70;0.30;;;29.70;37.50;;;;;;5050399;28;20512;-70
2023/09/12 14:24:16;;;;;;;0.70;0.20;;;29.70;36.70;;;;;;5056669;28;20480;-71
2023/09/12 14:26:48;;;;;;;0.70;0.20;;;29.70;34.00;;;;;;5068405;28;20476;-72
2023/09/12 14:29:16;;;;;;;0.70;0.10;;;29.80;34.40;;;;;;5055928;28;20437;-71
2023/09/12 14:31:49;;;;;;;0.70;0.20;;;29.80;34.60;;;;;;5055137;28;20536;-71
2023/09/12 14:34:18;;;;;;;0.70;0.10;;;29.90;33.80;;;;;;5069038;28;20486;-71
2023/09/12 14:36:47;;;;;;;0.70;0.10;;;29.90;33.90;;;;;;5066074;28;20575;-71
2023/09/12 14:39:15;;;;;;;0.70;0.10;;;29.90;35.40;;;;;;5048183;28;20936;-71
2023/09/12 14:41:49;;;;;;;0.70;0.30;;;;;;;;;;5048424;28;20965;-71
2023/09/12 14:44:17;;;;;;;0.70;0.20;;;29.90;33.70;;;;;;5048040;28;20850;-71
2023/09/12 14:46:45;;;;;;;3.53;2.80;;;;;;;;;;5049110;28;20470;-72
2023/09/12 14:49:13;;;;;;;0.70;0.10;;;30.00;33.00;;;;;;5048778;28;20940;-71
2023/09/12 14:51:41;;;;;;;0.70;0.10;;;30.00;33.50;;;;;;5049840;28;20544;-72
2023/09/12 14:54:11;;;;;;;0.70;0.20;;;30.00;33.70;;;;;;5052756;28;20477;-71
2023/09/12 14:56:38;;;;;;;0.70;0.20;;;30.00;33.20;;;;;;5048639;28;20489;-72
2023/09/12 14:59:06;;;;;;;0.73;0.20;;;30.10;33.00;;;;;;5053170;28;20525;-71
2023/09/12 15:01:35;;;;;;;0.70;0.10;;;30.10;36.60;;;;;;5053404;28;20499;-72
2023/09/12 15:04:03;;;;;;;0.70;0.10;;;30.10;33.30;;;;;;5053138;28;20454;-71
2023/09/12 15:06:33;;;;;;;0.70;0.23;;;30.20;37.60;;;;;;5052298;28;20473;-71
2023/09/12 15:09:01;;;;;;;0.70;0.20;;;;;;;;;;5053076;28;20940;-72
2023/09/12 15:11:31;;;;;;;0.70;0.20;;;30.20;30.40;;;;;;5053215;28;20446;-71
2023/09/12 15:13:59;;;;;;;0.70;0.10;;;30.30;33.40;;;;;;5053472;28;20936;-73
2023/09/12 15:16:31;;;;;;;0.70;0.10;;;30.20;32.70;;;;;;5053154;28;20464;-72
2023/09/12 15:18:59;;;;;;;0.70;0.20;;;;;;;;;;5044520;28;20495;-72
2023/09/12 15:21:27;;;;;;;0.70;0.30;;;30.30;30.90;;;;;;5053398;28;21017;-72
2023/09/12 15:23:55;;;;;;;0.70;0.17;;;30.30;34.00;;;;;;5051196;28;20450;-70
2023/09/12 15:26:24;;;;;;;0.70;0.10;;;30.20;34.70;;;;;;5067257;28;20460;-70
2023/09/12 15:28:53;;;;;;;0.70;0.30;;;30.30;39.00;;;;;;5069845;28;20544;-70
2023/09/12 15:31:21;;;;;;;0.70;0.20;;;30.20;32.70;;;;;;5055917;28;20928;-71
2023/09/12 15:33:49;;;;;;;0.70;0.17;;;30.20;36.80;;;;;;5067294;28;20500;-71
2023/09/12 15:36:17;;;;;;;0.70;0.20;;;30.20;31.60;;;;;;5068294;28;20461;-71
2023/09/12 15:38:45;;;;;;;0.70;0.30;;;30.20;31.00;;;;;;5072219;28;20541;-72
2023/09/12 15:41:13;;;;;;;0.70;0.20;;;30.10;31.70;;;;;;5067073;28;20454;-71
2023/09/12 15:43:41;;;;;;;0.97;0.87;;;30.20;33.50;;;;;;5069491;28;20441;-70
2023/09/12 15:46:10;;;;;;;0.70;0.17;;;30.20;33.10;;;;;;5072190;28;21036;-70
2023/09/12 15:48:52;;;;;;;0.70;0.30;;;30.30;42.80;;;;;;5054124;28;20457;-70
2023/09/12 15:51:20;;;;;;;0.70;0.10;;;30.40;41.60;;;;;;5057571;28;20434;-71
2023/09/12 15:53:48;;;;;;;0.70;0.20;;;30.50;41.80;;;;;;5057237;28;20462;-71
2023/09/12 15:56:16;;;;;;;0.80;0.37;;;30.60;39.10;;;;;;5056509;28;20486;-71
2023/09/12 15:58:47;;;;;;;0.70;0.20;;;;;;;;;;5051925;28;20565;-72
2023/09/12 16:01:17;;;;;;;0.70;0.20;;;30.70;32.70;;;;;;5052443;28;20469;-73
2023/09/12 16:03:44;;;;;;;0.70;0.20;;;30.70;31.70;;;;;;5052049;28;20545;-73
2023/09/12 16:06:13;;;;;;;0.70;0.20;;;30.70;31.10;;;;;;5052195;28;20547;-72
2023/09/12 16:08:41;;;;;;;0.70;0.10;;;30.80;39.00;;;;;;5052371;28;20537;-73
2023/09/12 16:11:08;;;;;;;0.70;0.20;;;30.70;33.10;;;;;;5052101;28;20442;-72
2023/09/12 16:13:36;;;;;;;0.70;0.10;;;30.70;35.10;;;;;;5052420;28;20533;-73
2023/09/12 16:16:05;;;;;;;0.70;0.20;;;30.70;36.60;;;;;;5051866;28;20807;-72
2023/09/12 16:18:34;;;;;;;0.70;0.10;;;30.60;32.10;;;;;;5052334;28;20531;-72
2023/09/12 16:21:02;;;;;;;0.70;0.20;;;30.50;31.70;;;;;;5052091;28;20530;-71
2023/09/12 16:23:31;;;;;;;0.70;0.20;;;30.30;31.50;;;;;;5051678;28;20901;-72
2023/09/12 16:26:00;;;;;;;0.70;0.20;;;30.10;33.00;;;;;;5051912;28;20473;-72
2023/09/12 16:28:28;;;;;;;0.70;0.10;;;30.00;38.80;;;;;;5051964;28;20468;-71
2023/09/12 16:30:57;;;;;;;0.70;0.20;;;;;;;;;;5051799;28;20540;-71
2023/09/12 16:33:25;;;;;;;0.70;0.20;;;29.80;36.20;;;;;;5045181;28;20456;-70
2023/09/12 16:35:54;;;;;;;0.70;0.20;;;29.70;36.70;;;;;;5043667;28;20471;-70
2023/09/12 16:38:22;;;;;;;0.70;0.10;;;29.60;38.20;;;;;;5048339;28;20499;-70
2023/09/12 16:40:50;;;;;;;0.70;0.20;;;29.50;38.70;;;;;;5048069;28;20889;-72
2023/09/12 16:43:18;;;;;;;0.70;0.10;;;29.50;36.00;;;;;;5048519;28;20527;-71
2023/09/12 16:45:46;;;;;;;0.70;0.10;;;29.40;35.90;;;;;;5045667;28;20855;-71
2023/09/12 16:48:13;;;;;;;0.70;0.20;;;29.40;35.70;;;;;;5044846;28;20458;-73
2023/09/12 16:50:41;;;;;;;0.70;0.10;;;29.30;36.50;;;;;;5043796;28;20465;-70
2023/09/12 16:53:10;;;;;;;0.70;0.20;;;29.30;33.70;;;;;;5048271;28;20885;-72
2023/09/12 16:55:39;;;;;;;0.70;0.20;;;;;;;;;;5047209;28;20549;-71
2023/09/12 16:58:06;;;;;;;0.70;0.10;;;29.10;32.70;;;;;;5046236;28;20480;-72
2023/09/12 17:00:34;;;;;;;0.70;0.20;;;29.10;33.00;;;;;;5044262;28;20439;-72
2023/09/12 17:03:02;;;;;;;0.70;0.20;;;29.00;32.00;;;;;;5046514;28;20467;-73
2023/09/12 17:05:30;;;;;;;0.70;0.20;;;29.00;31.20;;;;;;5045897;28;21181;-72
2023/09/12 17:07:58;;;;;;;2.10;0.40;;;28.90;30.50;;;;;;5050530;28;20572;-73
2023/09/12 17:10:27;;;;;;;0.70;0.10;;;28.80;30.40;;;;;;5051471;28;20463;-71
2023/09/12 17:12:55;;;;;;;0.70;0.20;;;;;;;;;;5050817;28;20460;-71
2023/09/12 17:15:24;;;;;;;0.90;0.20;;;28.70;30.50;;;;;;5050268;28;20454;-71
2023/09/12 17:17:52;;;;;;;0.70;0.10;;;28.70;30.90;;;;;;5049269;28;20486;-72
2023/09/12 17:20:20;;;;;;;0.70;0.10;;;28.60;31.60;;;;;;5050925;28;20959;-73